sensor_id;sensor_type;location;lat;lon;timestamp;pressure;altitude;pressure_sealevel;temperature;humidity
15634;BME280;14654;48.898;8.308;2022-12-29T00:01:46;99724.53;;;11.32;92.47
15634;BME280;14654;48.898;8.308;2022-12-29T00:04:13;99721.03;;;11.33;92.83
15634;BME280;14654;48.898;8.308;2022-12-29T00:06:39;99716.72;;;11.33;92.72
15634;BME280;14654;48.898;8.308;2022-12-29T00:09:04;99713.28;;;11.33;92.94
15634;BME280;14654;48.898;8.308;2022-12-29T00:11:29;99713.28;;;11.33;93.00
15634;BME280;14654;48.898;8.308;2022-12-29T00:13:55;99719.22;;;11.36;92.86
15634;BME280;14654;48.898;8.308;2022-12-29T00:16:43;99714.97;;;11.34;92.81
15634;BME280;14654;48.898;8.308;2022-12-29T00:19:10;99721.00;;;11.36;92.81
15634;BME280;14654;48.898;8.308;2022-12-29T00:21:56;99721.81;;;11.36;92.53
15634;BME280;14654;48.898;8.308;2022-12-29T00:24:40;99728.81;;;11.34;93.02
15634;BME280;14654;48.898;8.308;2022-12-29T00:27:25;99715.88;;;11.33;93.29
15634;BME280;14654;48.898;8.308;2022-12-29T00:30:11;99734.94;;;11.30;93.09
15634;BME280;14654;48.898;8.308;2022-12-29T00:32:56;99735.75;;;11.31;93.00
15634;BME280;14654;48.898;8.308;2022-12-29T00:35:47;99735.75;;;11.32;93.43
15634;BME280;14654;48.898;8.308;2022-12-29T00:38:15;99731.47;;;11.29;93.31
15634;BME280;14654;48.898;8.308;2022-12-29T00:40:59;99733.22;;;11.29;93.49
15634;BME280;14654;48.898;8.308;2022-12-29T00:43:43;99737.53;;;11.28;93.80
15634;BME280;14654;48.898;8.308;2022-12-29T00:46:27;99736.75;;;11.25;93.67
15634;BME280;14654;48.898;8.308;2022-12-29T00:48:52;99740.16;;;11.27;94.36
15634;BME280;14654;48.898;8.308;2022-12-29T00:51:36;99741.09;;;11.23;95.30
15634;BME280;14654;48.898;8.308;2022-12-29T00:54:02;99744.56;;;11.22;96.14
15634;BME280;14654;48.898;8.308;2022-12-29T00:56:27;99743.75;;;11.20;97.17
15634;BME280;14654;48.898;8.308;2022-12-29T00:58:52;99740.38;;;11.16;97.32
15634;BME280;14654;48.898;8.308;2022-12-29T01:01:18;99736.97;;;11.14;97.73
15634;BME280;14654;48.898;8.308;2022-12-29T01:03:43;99741.25;;;11.15;98.88
15634;BME280;14654;48.898;8.308;2022-12-29T01:06:10;99747.41;;;11.11;99.06
15634;BME280;14654;48.898;8.308;2022-12-29T01:08:37;99761.25;;;11.08;99.47
15634;BME280;14654;48.898;8.308;2022-12-29T01:11:06;99754.41;;;11.06;99.30
15634;BME280;14654;48.898;8.308;2022-12-29T01:13:32;99755.28;;;11.05;99.54
15634;BME280;14654;48.898;8.308;2022-12-29T01:15:57;99757.88;;;11.05;99.06
15634;BME280;14654;48.898;8.308;2022-12-29T01:18:23;99756.13;;;11.05;99.23
15634;BME280;14654;48.898;8.308;2022-12-29T01:20:49;99748.44;;;11.02;99.02
15634;BME280;14654;48.898;8.308;2022-12-29T01:23:15;99749.28;;;11.03;99.10
15634;BME280;14654;48.898;8.308;2022-12-29T01:25:40;99747.59;;;11.00;98.75
15634;BME280;14654;48.898;8.308;2022-12-29T01:28:06;99748.50;;;10.97;98.84
15634;BME280;14654;48.898;8.308;2022-12-29T01:30:34;99745.94;;;10.96;98.61
15634;BME280;14654;48.898;8.308;2022-12-29T01:32:59;99741.69;;;10.93;98.98
15634;BME280;14654;48.898;8.308;2022-12-29T01:35:24;99737.41;;;10.92;98.73
15634;BME280;14654;48.898;8.308;2022-12-29T01:37:50;99740.00;;;10.91;98.36
15634;BME280;14654;48.898;8.308;2022-12-29T01:40:15;99740.88;;;10.90;98.42
15634;BME280;14654;48.898;8.308;2022-12-29T01:42:40;99740.97;;;10.87;98.26
15634;BME280;14654;48.898;8.308;2022-12-29T01:45:11;99744.44;;;10.86;98.60
15634;BME280;14654;48.898;8.308;2022-12-29T01:47:45;99740.16;;;10.83;98.68
15634;BME280;14654;48.898;8.308;2022-12-29T01:50:20;99747.91;;;10.83;98.61
15634;BME280;14654;48.898;8.308;2022-12-29T01:52:54;99745.28;;;10.86;98.58
15634;BME280;14654;48.898;8.308;2022-12-29T01:55:22;99737.50;;;10.86;98.18
15634;BME280;14654;48.898;8.308;2022-12-29T01:57:51;99731.50;;;10.84;98.33
15634;BME280;14654;48.898;8.308;2022-12-29T02:00:17;99728.91;;;10.84;98.13
15634;BME280;14654;48.898;8.308;2022-12-29T02:02:51;99730.56;;;10.88;97.62
15634;BME280;14654;48.898;8.308;2022-12-29T02:05:26;99729.72;;;10.88;97.85
15634;BME280;14654;48.898;8.308;2022-12-29T02:07:52;99730.50;;;10.91;97.44
15634;BME280;14654;48.898;8.308;2022-12-29T02:10:20;99729.59;;;10.94;97.62
15634;BME280;14654;48.898;8.308;2022-12-29T02:12:46;99729.59;;;10.94;97.20
15634;BME280;14654;48.898;8.308;2022-12-29T02:15:12;99733.06;;;10.94;97.21
15634;BME280;14654;48.898;8.308;2022-12-29T02:31:13;99732.97;;;10.97;96.22
15634;BME280;14654;48.898;8.308;2022-12-29T02:34:18;99725.25;;;10.96;96.53
15634;BME280;14654;48.898;8.308;2022-12-29T02:37:10;99728.75;;;10.93;96.50
15634;BME280;14654;48.898;8.308;2022-12-29T02:42:13;99722.59;;;10.99;95.88
15634;BME280;14654;48.898;8.308;2022-12-29T02:44:55;99717.44;;;10.97;95.91
15634;BME280;14654;48.898;8.308;2022-12-29T02:47:41;99702.75;;;10.98;95.93
15634;BME280;14654;48.898;8.308;2022-12-29T02:50:08;99689.81;;;10.98;95.97
15634;BME280;14654;48.898;8.308;2022-12-29T02:52:44;99696.66;;;11.01;95.66
15634;BME280;14654;48.898;8.308;2022-12-29T02:55:11;99701.88;;;10.99;96.61
15634;BME280;14654;48.898;8.308;2022-12-29T02:57:37;99700.19;;;10.98;97.01
15634;BME280;14654;48.898;8.308;2022-12-29T03:10:48;99694.31;;;10.88;98.45
15634;BME280;14654;48.898;8.308;2022-12-29T03:16:22;99689.19;;;10.87;98.44
15634;BME280;14654;48.898;8.308;2022-12-29T03:18:55;99690.03;;;10.87;98.16
15634;BME280;14654;48.898;8.308;2022-12-29T03:24:10;99688.25;;;10.89;97.54
15634;BME280;14654;48.898;8.308;2022-12-29T03:26:37;99685.63;;;10.91;97.49
15634;BME280;14654;48.898;8.308;2022-12-29T03:29:03;99683.88;;;10.93;97.20
15634;BME280;14654;48.898;8.308;2022-12-29T03:31:31;99675.22;;;10.94;96.66
15634;BME280;14654;48.898;8.308;2022-12-29T03:33:56;99673.50;;;10.94;96.45
15634;BME280;14654;48.898;8.308;2022-12-29T03:36:29;99673.50;;;10.94;96.34
15634;BME280;14654;48.898;8.308;2022-12-29T03:39:08;99674.28;;;10.98;96.06
15634;BME280;14654;48.898;8.308;2022-12-29T03:41:36;99671.66;;;11.00;95.51
15634;BME280;14654;48.898;8.308;2022-12-29T03:44:05;99668.09;;;11.05;95.11
15634;BME280;14654;48.898;8.308;2022-12-29T03:46:31;99658.59;;;11.04;94.86
15634;BME280;14654;48.898;8.308;2022-12-29T03:48:56;99650.88;;;11.03;95.17
15634;BME280;14654;48.898;8.308;2022-12-29T03:51:22;99647.50;;;10.99;95.23
15634;BME280;14654;48.898;8.308;2022-12-29T03:53:47;99649.44;;;10.89;95.43
15634;BME280;14654;48.898;8.308;2022-12-29T03:56:13;99646.16;;;10.81;95.50
15634;BME280;14654;48.898;8.308;2022-12-29T03:58:38;99630.03;;;10.68;95.94
15634;BME280;14654;48.898;8.308;2022-12-29T04:01:03;99631.88;;;10.61;96.38
15634;BME280;14654;48.898;8.308;2022-12-29T04:03:29;99626.94;;;10.49;96.84
15634;BME280;14654;48.898;8.308;2022-12-29T04:05:54;99621.03;;;10.42;97.14
15634;BME280;14654;48.898;8.308;2022-12-29T04:08:19;99627.16;;;10.38;97.01
15634;BME280;14654;48.898;8.308;2022-12-29T04:10:44;99629.75;;;10.35;97.09
15634;BME280;14654;48.898;8.308;2022-12-29T04:13:10;99641.91;;;10.31;97.21
15634;BME280;14654;48.898;8.308;2022-12-29T04:15:36;99635.94;;;10.28;97.21
15634;BME280;14654;48.898;8.308;2022-12-29T04:18:01;99624.72;;;10.27;97.22
15634;BME280;14654;48.898;8.308;2022-12-29T04:20:39;99627.22;;;10.32;97.05
15634;BME280;14654;48.898;8.308;2022-12-29T04:23:23;99633.22;;;10.34;97.26
15634;BME280;14654;48.898;8.308;2022-12-29T04:25:49;99627.13;;;10.36;97.41
15634;BME280;14654;48.898;8.308;2022-12-29T04:28:15;99627.97;;;10.39;97.27
15634;BME280;14654;48.898;8.308;2022-12-29T04:30:42;99641.81;;;10.36;97.55
15634;BME280;14654;48.898;8.308;2022-12-29T04:33:08;99638.38;;;10.34;97.42
15634;BME280;14654;48.898;8.308;2022-12-29T04:35:33;99642.72;;;10.33;97.94
15634;BME280;14654;48.898;8.308;2022-12-29T04:37:58;99640.13;;;10.33;98.07
15634;BME280;14654;48.898;8.308;2022-12-29T04:40:24;99629.81;;;10.32;98.33
15634;BME280;14654;48.898;8.308;2022-12-29T04:42:49;99621.22;;;10.31;98.50
15634;BME280;14654;48.898;8.308;2022-12-29T04:45:15;99635.03;;;10.29;98.99
15634;BME280;14654;48.898;8.308;2022-12-29T04:47:40;99625.41;;;10.37;98.92
15634;BME280;14654;48.898;8.308;2022-12-29T04:50:06;99628.72;;;10.45;98.97
15634;BME280;14654;48.898;8.308;2022-12-29T04:52:32;99622.50;;;10.56;98.74
15634;BME280;14654;48.898;8.308;2022-12-29T04:54:57;99623.19;;;10.64;98.41
15634;BME280;14654;48.898;8.308;2022-12-29T04:57:22;99629.03;;;10.74;98.22
15634;BME280;14654;48.898;8.308;2022-12-29T04:59:47;99622.00;;;10.80;97.75
15634;BME280;14654;48.898;8.308;2022-12-29T05:02:13;99621.03;;;10.86;97.95
15634;BME280;14654;48.898;8.308;2022-12-29T05:04:38;99619.22;;;10.90;97.92
15634;BME280;14654;48.898;8.308;2022-12-29T05:07:03;99619.09;;;10.96;97.90
15634;BME280;14654;48.898;8.308;2022-12-29T05:09:29;99623.38;;;10.97;97.62
15634;BME280;14654;48.898;8.308;2022-12-29T05:11:55;99614.69;;;11.01;97.72
15634;BME280;14654;48.898;8.308;2022-12-29T05:14:20;99602.56;;;11.03;97.85
15634;BME280;14654;48.898;8.308;2022-12-29T05:16:45;99617.16;;;11.06;97.87
15634;BME280;14654;48.898;8.308;2022-12-29T05:19:11;99611.91;;;11.09;97.63
15634;BME280;14654;48.898;8.308;2022-12-29T05:21:36;99594.56;;;11.12;97.43
15634;BME280;14654;48.898;8.308;2022-12-29T05:24:01;99591.91;;;11.16;97.17
15634;BME280;14654;48.898;8.308;2022-12-29T05:26:26;99599.63;;;11.17;97.15
15634;BME280;14654;48.898;8.308;2022-12-29T05:28:52;99592.69;;;11.19;97.26
15634;BME280;14654;48.898;8.308;2022-12-29T05:31:17;99588.41;;;11.18;97.11
15634;BME280;14654;48.898;8.308;2022-12-29T05:33:42;99579.81;;;11.16;97.27
15634;BME280;14654;48.898;8.308;2022-12-29T05:36:09;99568.63;;;11.14;97.72
15634;BME280;14654;48.898;8.308;2022-12-29T05:38:34;99583.34;;;11.12;97.81
15634;BME280;14654;48.898;8.308;2022-12-29T05:41:00;99583.44;;;11.09;98.10
15634;BME280;14654;48.898;8.308;2022-12-29T05:43:25;99585.16;;;11.10;97.77
15634;BME280;14654;48.898;8.308;2022-12-29T05:45:51;99586.03;;;11.07;98.04
15634;BME280;14654;48.898;8.308;2022-12-29T05:48:17;99583.50;;;11.04;98.20
15634;BME280;14654;48.898;8.308;2022-12-29T05:50:42;99594.81;;;11.02;98.11
15634;BME280;14654;48.898;8.308;2022-12-29T05:53:08;99601.91;;;10.93;98.49
15634;BME280;14654;48.898;8.308;2022-12-29T05:55:34;99604.66;;;10.86;98.60
15634;BME280;14654;48.898;8.308;2022-12-29T05:57:59;99597.78;;;10.83;98.82
15634;BME280;14654;48.898;8.308;2022-12-29T06:00:25;99591.72;;;10.84;98.50
15634;BME280;14654;48.898;8.308;2022-12-29T06:02:50;99584.94;;;10.78;98.62
15634;BME280;14654;48.898;8.308;2022-12-29T06:05:16;99594.47;;;10.76;98.80
15634;BME280;14654;48.898;8.308;2022-12-29T06:07:41;99584.22;;;10.73;99.06
15634;BME280;14654;48.898;8.308;2022-12-29T06:10:07;99598.91;;;10.71;98.93
15634;BME280;14654;48.898;8.308;2022-12-29T06:12:32;99604.91;;;10.72;98.98
15634;BME280;14654;48.898;8.308;2022-12-29T06:14:58;99596.19;;;10.77;98.55
15634;BME280;14654;48.898;8.308;2022-12-29T06:17:23;99597.81;;;10.81;98.58
15634;BME280;14654;48.898;8.308;2022-12-29T06:19:48;99602.84;;;10.89;97.81
15634;BME280;14654;48.898;8.308;2022-12-29T06:22:13;99605.31;;;10.94;97.48
15634;BME280;14654;48.898;8.308;2022-12-29T06:24:39;99595.69;;;11.01;96.66
15634;BME280;14654;48.898;8.308;2022-12-29T06:27:04;99585.28;;;11.04;96.47
15634;BME280;14654;48.898;8.308;2022-12-29T06:29:30;99586.09;;;11.06;96.32
15634;BME280;14654;48.898;8.308;2022-12-29T06:31:55;99572.19;;;11.10;95.62
15634;BME280;14654;48.898;8.308;2022-12-29T06:34:26;99555.69;;;11.14;94.92
15634;BME280;14654;48.898;8.308;2022-12-29T06:36:51;99554.13;;;11.07;95.60
15634;BME280;14654;48.898;8.308;2022-12-29T06:39:17;99555.13;;;11.01;95.20
15634;BME280;14654;48.898;8.308;2022-12-29T06:41:42;99551.88;;;10.91;95.48
15634;BME280;14654;48.898;8.308;2022-12-29T06:44:07;99550.19;;;10.90;95.22
15634;BME280;14654;48.898;8.308;2022-12-29T06:46:33;99551.91;;;10.90;95.10
15634;BME280;14654;48.898;8.308;2022-12-29T06:48:58;99544.19;;;10.88;95.22
15634;BME280;14654;48.898;8.308;2022-12-29T06:51:23;99553.53;;;10.94;94.63
15634;BME280;14654;48.898;8.308;2022-12-29T06:53:49;99549.16;;;10.97;94.70
15634;BME280;14654;48.898;8.308;2022-12-29T06:56:14;99560.31;;;11.01;94.30
15634;BME280;14654;48.898;8.308;2022-12-29T06:58:39;99559.31;;;11.07;94.04
15634;BME280;14654;48.898;8.308;2022-12-29T07:01:05;99571.25;;;11.12;93.74
15634;BME280;14654;48.898;8.308;2022-12-29T07:03:30;99570.44;;;11.10;93.61
15634;BME280;14654;48.898;8.308;2022-12-29T07:05:55;99556.50;;;11.16;92.81
15634;BME280;14654;48.898;8.308;2022-12-29T07:08:23;99575.44;;;11.18;92.78
15634;BME280;14654;48.898;8.308;2022-12-29T07:10:48;99568.44;;;11.22;92.58
15634;BME280;14654;48.898;8.308;2022-12-29T07:13:14;99563.28;;;11.22;92.23
15634;BME280;14654;48.898;8.308;2022-12-29T07:15:39;99572.94;;;11.15;92.46
15634;BME280;14654;48.898;8.308;2022-12-29T07:18:05;99576.50;;;11.11;92.53
15634;BME280;14654;48.898;8.308;2022-12-29T07:20:31;99575.69;;;11.07;92.75
15634;BME280;14654;48.898;8.308;2022-12-29T07:22:56;99577.44;;;11.07;92.51
15634;BME280;14654;48.898;8.308;2022-12-29T07:25:22;99587.75;;;11.08;92.57
15634;BME280;14654;48.898;8.308;2022-12-29T07:27:47;99585.06;;;11.13;92.45
15634;BME280;14654;48.898;8.308;2022-12-29T07:30:13;99580.69;;;11.15;92.20
15634;BME280;14654;48.898;8.308;2022-12-29T07:32:39;99581.56;;;11.16;92.23
15634;BME280;14654;48.898;8.308;2022-12-29T07:35:04;99588.41;;;11.18;91.89
15634;BME280;14654;48.898;8.308;2022-12-29T07:37:30;99584.94;;;11.19;91.74
15634;BME280;14654;48.898;8.308;2022-12-29T07:39:55;99582.28;;;11.21;91.77
15634;BME280;14654;48.898;8.308;2022-12-29T07:42:20;99584.94;;;11.19;91.27
15634;BME280;14654;48.898;8.308;2022-12-29T07:44:46;99593.47;;;11.23;90.97
15634;BME280;14654;48.898;8.308;2022-12-29T07:47:11;99600.28;;;11.27;90.88
15634;BME280;14654;48.898;8.308;2022-12-29T07:49:36;99602.06;;;11.25;91.11
15634;BME280;14654;48.898;8.308;2022-12-29T07:52:02;99601.13;;;11.27;91.11
15634;BME280;14654;48.898;8.308;2022-12-29T07:54:27;99605.56;;;11.22;91.18
15634;BME280;14654;48.898;8.308;2022-12-29T07:56:52;99604.69;;;11.23;91.12
15634;BME280;14654;48.898;8.308;2022-12-29T07:59:18;99596.13;;;11.20;90.99
15634;BME280;14654;48.898;8.308;2022-12-29T08:01:43;99606.56;;;11.17;91.26
15634;BME280;14654;48.898;8.308;2022-12-29T08:04:08;99606.59;;;11.15;91.34
15634;BME280;14654;48.898;8.308;2022-12-29T08:06:34;99612.53;;;11.20;90.90
15634;BME280;14654;48.898;8.308;2022-12-29T08:08:59;99628.13;;;11.19;90.77
15634;BME280;14654;48.898;8.308;2022-12-29T08:11:26;99629.72;;;11.23;91.41
15634;BME280;14654;48.898;8.308;2022-12-29T08:13:51;99630.38;;;11.34;90.98
15634;BME280;14654;48.898;8.308;2022-12-29T08:16:17;99636.25;;;11.41;90.95
15634;BME280;14654;48.898;8.308;2022-12-29T08:18:42;99641.09;;;11.55;89.76
15634;BME280;14654;48.898;8.308;2022-12-29T08:21:07;99640.97;;;11.59;89.64
15634;BME280;14654;48.898;8.308;2022-12-29T08:23:33;99645.09;;;11.68;89.24
15634;BME280;14654;48.898;8.308;2022-12-29T08:25:59;99644.22;;;11.69;89.34
15634;BME280;14654;48.898;8.308;2022-12-29T08:28:25;99636.31;;;11.76;89.16
15634;BME280;14654;48.898;8.308;2022-12-29T08:30:50;99650.97;;;11.77;89.05
15634;BME280;14654;48.898;8.308;2022-12-29T08:33:16;99652.50;;;11.84;88.78
15634;BME280;14654;48.898;8.308;2022-12-29T08:35:41;99655.81;;;11.90;88.48
15634;BME280;14654;48.898;8.308;2022-12-29T08:38:06;99670.41;;;11.95;88.26
15634;BME280;14654;48.898;8.308;2022-12-29T08:40:32;99667.66;;;12.02;87.74
15634;BME280;14654;48.898;8.308;2022-12-29T08:42:57;99654.53;;;12.09;87.83
15634;BME280;14654;48.898;8.308;2022-12-29T08:45:22;99673.47;;;12.11;88.12
15634;BME280;14654;48.898;8.308;2022-12-29T08:47:47;99669.16;;;12.11;88.01
15634;BME280;14654;48.898;8.308;2022-12-29T08:50:13;99669.72;;;12.23;87.41
15634;BME280;14654;48.898;8.308;2022-12-29T08:52:38;99673.97;;;12.27;87.86
15634;BME280;14654;48.898;8.308;2022-12-29T08:55:03;99682.38;;;12.37;87.36
15634;BME280;14654;48.898;8.308;2022-12-29T08:57:29;99680.59;;;12.39;87.24
15634;BME280;14654;48.898;8.308;2022-12-29T08:59:54;99670.91;;;12.44;87.05
15634;BME280;14654;48.898;8.308;2022-12-29T09:02:20;99666.59;;;12.44;87.46
15634;BME280;14654;48.898;8.308;2022-12-29T09:04:45;99662.28;;;12.43;87.67
15634;BME280;14654;48.898;8.308;2022-12-29T09:07:10;99662.16;;;12.48;87.84
15634;BME280;14654;48.898;8.308;2022-12-29T09:09:36;99667.28;;;12.51;88.10
15634;BME280;14654;48.898;8.308;2022-12-29T09:12:01;99670.59;;;12.56;87.51
15634;BME280;14654;48.898;8.308;2022-12-29T09:14:26;99671.53;;;12.54;87.81
15634;BME280;14654;48.898;8.308;2022-12-29T09:16:53;99680.19;;;12.53;88.05
15634;BME280;14654;48.898;8.308;2022-12-29T09:19:37;99678.50;;;12.52;88.35
15634;BME280;14654;48.898;8.308;2022-12-29T09:22:03;99679.31;;;12.54;88.40
15634;BME280;14654;48.898;8.308;2022-12-29T09:24:28;99678.38;;;12.56;88.16
15634;BME280;14654;48.898;8.308;2022-12-29T09:26:53;99705.81;;;12.65;88.25
15634;BME280;14654;48.898;8.308;2022-12-29T09:29:19;99688.44;;;12.69;88.06
15634;BME280;14654;48.898;8.308;2022-12-29T09:31:44;99682.31;;;12.71;88.10
15634;BME280;14654;48.898;8.308;2022-12-29T09:34:09;99696.69;;;12.83;87.81
15634;BME280;14654;48.898;8.308;2022-12-29T09:36:35;99695.53;;;12.93;87.94
15634;BME280;14654;48.898;8.308;2022-12-29T09:39:00;99693.47;;;13.06;87.63
15634;BME280;14654;48.898;8.308;2022-12-29T09:44:24;99690.03;;;13.34;86.86
15634;BME280;14654;48.898;8.308;2022-12-29T09:46:53;99692.38;;;13.44;86.91
15634;BME280;14654;48.898;8.308;2022-12-29T09:51:52;99703.03;;;13.64;85.94
15634;BME280;14654;48.898;8.308;2022-12-29T09:54:28;99698.34;;;13.76;86.45
15634;BME280;14654;48.898;8.308;2022-12-29T09:56:57;99716.13;;;13.90;85.99
15634;BME280;14654;48.898;8.308;2022-12-29T09:59:38;99699.50;;;13.94;85.29
15634;BME280;14654;48.898;8.308;2022-12-29T10:02:16;99702.00;;;13.97;85.17
15634;BME280;14654;48.898;8.308;2022-12-29T10:04:46;99700.84;;;14.06;85.49
15634;BME280;14654;48.898;8.308;2022-12-29T10:10:10;99708.28;;;14.43;84.85
15634;BME280;14654;48.898;8.308;2022-12-29T10:13:19;99714.47;;;14.64;84.00
15634;BME280;14654;48.898;8.308;2022-12-29T10:24:21;99719.34;;;14.75;84.19
15634;BME280;14654;48.898;8.308;2022-12-29T10:26:49;99714.88;;;14.79;84.25
15634;BME280;14654;48.898;8.308;2022-12-29T10:29:19;99718.38;;;14.78;84.76
15634;BME280;14654;48.898;8.308;2022-12-29T10:31:50;99714.84;;;14.81;85.08
15634;BME280;14654;48.898;8.308;2022-12-29T10:34:26;99719.19;;;14.80;84.43
15634;BME280;14654;48.898;8.308;2022-12-29T10:36:58;99725.00;;;14.61;85.36
15634;BME280;14654;48.898;8.308;2022-12-29T10:39:33;99726.94;;;14.56;86.29
15634;BME280;14654;48.898;8.308;2022-12-29T10:42:20;99722.81;;;14.49;87.01
15634;BME280;14654;48.898;8.308;2022-12-29T10:44:50;99731.97;;;14.61;85.95
15634;BME280;14654;48.898;8.308;2022-12-29T10:47:23;99720.69;;;14.60;85.56
15634;BME280;14654;48.898;8.308;2022-12-29T10:49:50;99723.38;;;14.59;86.34
15634;BME280;14654;48.898;8.308;2022-12-29T10:52:17;99720.94;;;14.54;85.89
15634;BME280;14654;48.898;8.308;2022-12-29T10:54:58;99722.00;;;14.48;85.84
15634;BME280;14654;48.898;8.308;2022-12-29T10:59:52;99708.84;;;14.26;86.44
15634;BME280;14654;48.898;8.308;2022-12-29T11:05:12;99724.66;;;13.93;88.17
15634;BME280;14654;48.898;8.308;2022-12-29T11:07:39;99727.66;;;13.81;88.50
15634;BME280;14654;48.898;8.308;2022-12-29T11:10:28;99722.72;;;13.71;88.83
15634;BME280;14654;48.898;8.308;2022-12-29T11:13:03;99719.22;;;13.72;88.86
15634;BME280;14654;48.898;8.308;2022-12-29T11:15:42;99727.81;;;13.76;89.08
15634;BME280;14654;48.898;8.308;2022-12-29T11:18:23;99720.00;;;13.76;88.88
15634;BME280;14654;48.898;8.308;2022-12-29T11:20:53;99722.06;;;13.65;89.39
15634;BME280;14654;48.898;8.308;2022-12-29T11:23:31;99722.31;;;13.57;89.71
15634;BME280;14654;48.898;8.308;2022-12-29T11:28:35;99725.28;;;13.45;90.60
15634;BME280;14654;48.898;8.308;2022-12-29T11:31:03;99722.44;;;13.52;90.35
15634;BME280;14654;48.898;8.308;2022-12-29T11:33:30;99719.44;;;13.66;89.38
15634;BME280;14654;48.898;8.308;2022-12-29T11:38:36;99733.53;;;13.86;88.18
15634;BME280;14654;48.898;8.308;2022-12-29T11:41:03;99739.53;;;13.90;87.75
15634;BME280;14654;48.898;8.308;2022-12-29T11:43:31;99736.03;;;13.91;87.51
15634;BME280;14654;48.898;8.308;2022-12-29T11:45:59;99740.28;;;13.93;87.40
15634;BME280;14654;48.898;8.308;2022-12-29T11:48:28;99735.66;;;14.01;87.31
15634;BME280;14654;48.898;8.308;2022-12-29T11:50:57;99712.91;;;14.08;86.53
15634;BME280;14654;48.898;8.308;2022-12-29T11:53:39;99718.16;;;14.07;85.96
15634;BME280;14654;48.898;8.308;2022-12-29T11:56:11;99729.47;;;14.06;86.28
15634;BME280;14654;48.898;8.308;2022-12-29T11:58:38;99724.44;;;13.99;86.60
15634;BME280;14654;48.898;8.308;2022-12-29T12:01:20;99718.47;;;13.97;86.19
15634;BME280;14654;48.898;8.308;2022-12-29T12:04:12;99717.66;;;13.95;86.00
15634;BME280;14654;48.898;8.308;2022-12-29T12:06:44;99709.97;;;13.92;86.09
15634;BME280;14654;48.898;8.308;2022-12-29T12:09:23;99717.69;;;13.94;86.47
15634;BME280;14654;48.898;8.308;2022-12-29T12:11:52;99715.09;;;13.94;87.27
15634;BME280;14654;48.898;8.308;2022-12-29T12:14:53;99716.66;;;13.99;87.90
15634;BME280;14654;48.898;8.308;2022-12-29T12:17:57;99711.19;;;14.07;87.25
15634;BME280;14654;48.898;8.308;2022-12-29T12:20:38;99709.53;;;14.06;87.70
15634;BME280;14654;48.898;8.308;2022-12-29T12:25:59;99707.94;;;14.00;88.94
15634;BME280;14654;48.898;8.308;2022-12-29T12:28:40;99715.06;;;13.95;88.38
15634;BME280;14654;48.898;8.308;2022-12-29T12:31:17;99712.88;;;13.83;89.01
15634;BME280;14654;48.898;8.308;2022-12-29T12:33:47;99704.19;;;13.82;89.36
15634;BME280;14654;48.898;8.308;2022-12-29T12:42:13;99698.34;;;14.02;88.66
15634;BME280;14654;48.898;8.308;2022-12-29T12:44:58;99699.25;;;14.01;89.13
15634;BME280;14654;48.898;8.308;2022-12-29T12:48:09;99691.50;;;14.00;89.35
15634;BME280;14654;48.898;8.308;2022-12-29T12:50:55;99697.34;;;14.07;89.29
15634;BME280;14654;48.898;8.308;2022-12-29T13:01:38;99687.44;;;14.18;90.23
15634;BME280;14654;48.898;8.308;2022-12-29T13:07:07;99685.19;;;14.07;90.20
15634;BME280;14654;48.898;8.308;2022-12-29T13:15:33;99695.66;;;13.77;94.06
15634;BME280;14654;48.898;8.308;2022-12-29T13:21:03;99704.25;;;13.52;97.72
15634;BME280;14654;48.898;8.308;2022-12-29T13:29:06;99718.34;;;13.14;100.00
15634;BME280;14654;48.898;8.308;2022-12-29T13:32:01;99719.66;;;12.97;100.00
15634;BME280;14654;48.898;8.308;2022-12-29T13:34:48;99709.00;;;12.76;100.00
15634;BME280;14654;48.898;8.308;2022-12-29T13:37:20;99712.91;;;12.60;100.00
15634;BME280;14654;48.898;8.308;2022-12-29T13:39:59;99703.75;;;12.45;100.00
15634;BME280;14654;48.898;8.308;2022-12-29T13:42:27;99702.38;;;12.31;100.00
15634;BME280;14654;48.898;8.308;2022-12-29T13:45:06;99720.81;;;12.20;100.00
15634;BME280;14654;48.898;8.308;2022-12-29T13:47:45;99709.78;;;12.11;100.00
15634;BME280;14654;48.898;8.308;2022-12-29T13:50:15;99701.31;;;12.04;100.00
15634;BME280;14654;48.898;8.308;2022-12-29T13:52:46;99697.13;;;11.98;100.00
15634;BME280;14654;48.898;8.308;2022-12-29T13:55:22;99698.09;;;11.94;100.00
15634;BME280;14654;48.898;8.308;2022-12-29T13:57:56;99698.09;;;11.93;100.00
15634;BME280;14654;48.898;8.308;2022-12-29T14:00:25;99706.84;;;11.88;100.00
15634;BME280;14654;48.898;8.308;2022-12-29T14:05:35;99714.00;;;11.79;100.00
15634;BME280;14654;48.898;8.308;2022-12-29T14:08:03;99715.78;;;11.77;100.00
15634;BME280;14654;48.898;8.308;2022-12-29T14:10:34;99724.56;;;11.69;100.00
15634;BME280;14654;48.898;8.308;2022-12-29T14:13:06;99731.63;;;11.64;100.00
15634;BME280;14654;48.898;8.308;2022-12-29T14:15:38;99733.47;;;11.57;100.00
15634;BME280;14654;48.898;8.308;2022-12-29T14:18:33;99747.41;;;11.52;100.00
15634;BME280;14654;48.898;8.308;2022-12-29T14:21:00;99746.66;;;11.47;100.00
15634;BME280;14654;48.898;8.308;2022-12-29T14:23:41;99759.69;;;11.42;100.00
15634;BME280;14654;48.898;8.308;2022-12-29T14:28:39;99753.00;;;11.33;100.00
15634;BME280;14654;48.898;8.308;2022-12-29T14:38:58;99769.34;;;10.91;100.00
15634;BME280;14654;48.898;8.308;2022-12-29T14:41:28;99777.19;;;10.87;100.00
15634;BME280;14654;48.898;8.308;2022-12-29T14:43:58;99775.63;;;10.78;100.00
15634;BME280;14654;48.898;8.308;2022-12-29T14:46:24;99769.63;;;10.74;100.00
15634;BME280;14654;48.898;8.308;2022-12-29T14:48:55;99781.78;;;10.71;100.00
15634;BME280;14654;48.898;8.308;2022-12-29T14:51:31;99775.81;;;10.67;100.00
15634;BME280;14654;48.898;8.308;2022-12-29T14:53:57;99771.56;;;10.63;100.00
15634;BME280;14654;48.898;8.308;2022-12-29T14:56:27;99777.72;;;10.57;100.00
15634;BME280;14654;48.898;8.308;2022-12-29T14:58:55;99765.78;;;10.50;100.00
15634;BME280;14654;48.898;8.308;2022-12-29T15:04:05;99768.41;;;10.45;100.00